This is the latest recevied weather packets stored in our database for station/object KC5TIL-3. If no packets are shown the sender has not sent any weather packets the latest 10 day(s).
| Time | Temp. | Humidity | Pressure | Rain* | Wind** | Luminosity | Snow |
|---|---|---|---|---|---|---|---|
| 1787506855 | 38.89° C | 10% | 1012.8 hPa | 0 mm | 1.79 m/s, 163° | - | - |
| 1787506557 | 38.33° C | 10% | 1012.8 hPa | 0 mm | 3.58 m/s, 198° | - | - |
| 1787506259 | 38.89° C | 10% | 1012.8 hPa | 0 mm | 1.79 m/s, 95° | - | - |
| 1787505957 | 39.44° C | 10% | 1012.8 hPa | 0 mm | 1.79 m/s, 78° | - | - |
| 1787505659 | 38.89° C | 10% | 1012.8 hPa | 0 mm | 1.79 m/s, 151° | - | - |
| 1787505355 | 38.33° C | 10% | 1012.8 hPa | 0 mm | 1.79 m/s, 127° | - | - |
| 1787505054 | 37.78° C | 10% | 1012.8 hPa | 0 mm | 3.58 m/s, 250° | - | - |
| 1787504756 | 37.78° C | 10% | 1012.8 hPa | 0 mm | 3.58 m/s, 201° | - | - |
| 1787504453 | 38.89° C | 10% | 1012.8 hPa | 0 mm | 1.34 m/s, 294° | - | - |
| 1787504152 | 37.78° C | 10% | 1012.8 hPa | 0 mm | 2.24 m/s, 237° | - | - |
| 1787503854 | 37.78° C | 10% | 1012.8 hPa | 0 mm | 3.13 m/s, 193° | - | - |
| 1787503556 | 38.33° C | 10% | 1012.8 hPa | 0 mm | 1.79 m/s, 307° | - | - |
| 1787503254 | 37.78° C | 10% | 1012.8 hPa | 0 mm | 3.13 m/s, 318° | - | - |
| 1787502956 | 37.22° C | 10% | 1012.8 hPa | 0 mm | 1.79 m/s, 241° | - | - |
| 1787502658 | 37.22° C | 10% | 1012.8 hPa | 0 mm | 2.68 m/s, 224° | - | - |
| 1787502357 | 37.22° C | 10% | 1012.8 hPa | 0 mm | 3.13 m/s, 120° | - | - |
| 1787502058 | 37.22° C | 10% | 1012.8 hPa | 0 mm | 2.24 m/s, 270° | - | - |
| 1787501760 | 37.22° C | 10% | 1012.8 hPa | 0 mm | 3.13 m/s, 241° | - | - |
| 1787501459 | 37.22° C | 10% | 1012.8 hPa | 0 mm | 1.79 m/s, 254° | - | - |
| 1787501161 | 37.78° C | 10% | 1012.8 hPa | 0 mm | 2.24 m/s, 176° | - | - |
| 1787500863 | 36.67° C | 10% | 1012.8 hPa | 0 mm | 2.68 m/s, 177° | - | - |
| 1787500556 | 36.11° C | 11% | 1012.8 hPa | 0 mm | 3.13 m/s, 198° | - | - |
| 1787500258 | 37.22° C | 10% | 1012.8 hPa | 0 mm | 0 m/s | - | - |
| 1787499960 | 36.67° C | 13% | 1012.8 hPa | 0 mm | 1.34 m/s, 242° | - | - |
| 1787499659 | 36.67° C | 13% | 1012.8 hPa | 0 mm | 1.34 m/s, 250° | - | - |
* Rain latest hour (hover to see other rain measurements)
** Current wind speed in m/s (hover to see current wind gust speed)